Time;durP1;ratioP1;P1;durP2;ratioP2;P2;SDS_P1;SDS_P2;PMS_P1;PMS_P2;Temp;Humidity;BMP_temperature;BMP_pressure;BME280_temperature;BME280_humidity;BME280_pressure;Samples;Min_cycle;Max_cycle;Signal;HPM_P1;HPM_P2
2023/07/31 00:00:28;;;;;;;1.75;0.93;;;15.70;99.90;;;;;;5040702;28;20091;-35
2023/07/31 00:02:54;;;;;;;1.80;0.90;;;15.70;99.90;;;;;;5041825;28;20045;-34
2023/07/31 00:05:20;;;;;;;2.53;1.00;;;15.70;99.90;;;;;;5044006;28;20520;-35
2023/07/31 00:07:46;;;;;;;1.73;1.00;;;15.70;99.90;;;;;;5042277;28;20041;-35
2023/07/31 00:10:12;;;;;;;1.70;0.90;;;15.60;99.90;;;;;;5043034;28;20040;-34
2023/07/31 00:12:39;;;;;;;1.98;0.82;;;15.60;99.90;;;;;;5041283;28;20055;-35
2023/07/31 00:15:06;;;;;;;2.40;0.90;;;15.60;99.90;;;;;;5041525;28;21733;-34
2023/07/31 00:17:32;;;;;;;2.40;0.75;;;15.50;99.90;;;;;;5045132;28;20069;-37
2023/07/31 00:19:58;;;;;;;1.30;0.70;;;15.50;99.90;;;;;;5042705;28;20270;-34
2023/07/31 00:22:24;;;;;;;2.65;0.80;;;15.40;99.90;;;;;;5045209;28;20135;-34
2023/07/31 00:24:49;;;;;;;1.63;0.73;;;15.40;99.90;;;;;;5041491;28;20048;-34
2023/07/31 00:27:15;;;;;;;2.22;0.82;;;15.40;99.90;;;;;;5043163;28;20731;-34
2023/07/31 00:29:41;;;;;;;1.17;0.50;;;15.40;99.90;;;;;;5046861;28;20068;-34
2023/07/31 00:32:07;;;;;;;1.73;0.63;;;15.40;99.90;;;;;;5044060;28;20051;-35
2023/07/31 00:34:32;;;;;;;1.88;0.70;;;15.30;99.90;;;;;;5045613;28;20521;-35
2023/07/31 00:36:58;;;;;;;1.48;0.50;;;15.40;99.90;;;;;;5040037;28;20056;-35
2023/07/31 00:39:24;;;;;;;2.28;0.50;;;15.40;99.90;;;;;;5022558;28;20053;-35
2023/07/31 00:41:49;;;;;;;1.73;0.70;;;15.30;99.90;;;;;;5039466;28;20409;-34
2023/07/31 00:44:15;;;;;;;1.45;0.40;;;15.40;99.90;;;;;;5041272;28;20041;-35
2023/07/31 00:46:41;;;;;;;2.35;0.50;;;15.30;99.90;;;;;;5041984;28;20049;-34
2023/07/31 00:49:08;;;;;;;0.82;0.30;;;15.30;99.90;;;;;;5025389;28;20095;-34
2023/07/31 00:51:34;;;;;;;0.63;0.30;;;15.30;99.90;;;;;;5044939;28;20509;-35
2023/07/31 00:54:00;;;;;;;0.70;0.40;;;15.30;99.90;;;;;;5040943;28;20057;-34
2023/07/31 00:56:27;;;;;;;2.03;0.30;;;15.30;99.90;;;;;;5039869;28;20052;-34
2023/07/31 00:58:53;;;;;;;0.85;0.28;;;15.30;99.90;;;;;;5036263;28;20095;-35
2023/07/31 01:01:19;;;;;;;1.40;0.30;;;15.40;99.90;;;;;;5040569;28;20056;-35
2023/07/31 01:03:45;;;;;;;0.77;0.30;;;15.30;99.90;;;;;;5041687;28;20068;-35
2023/07/31 01:06:32;;;;;;;1.13;0.40;;;15.30;99.90;;;;;;5043772;28;20046;-34
2023/07/31 01:09:31;;;;;;;0.70;0.30;;;15.30;99.90;;;;;;5042979;28;20126;-35
2023/07/31 01:12:02;;;;;;;3.65;0.30;;;15.30;99.90;;;;;;5031121;28;20048;-35
2023/07/31 01:14:28;;;;;;;0.93;0.40;;;15.40;99.90;;;;;;5042590;28;20057;-34
2023/07/31 01:16:54;;;;;;;2.30;0.60;;;15.40;99.90;;;;;;5045055;28;20122;-35
2023/07/31 01:19:26;;;;;;;0.65;0.30;;;15.40;99.90;;;;;;5039568;28;20478;-34
2023/07/31 01:22:05;;;;;;;0.90;0.32;;;15.40;99.90;;;;;;5042377;28;20426;-35
2023/07/31 01:24:54;;;;;;;1.35;0.40;;;15.40;99.90;;;;;;5042164;28;20076;-34
2023/07/31 01:27:25;;;;;;;2.40;0.40;;;15.40;99.90;;;;;;5040852;28;20068;-34
2023/07/31 01:30:03;;;;;;;0.90;0.40;;;15.40;99.90;;;;;;5041555;28;20045;-35
2023/07/31 01:32:29;;;;;;;0.70;0.30;;;15.40;99.90;;;;;;5043051;28;20050;-35
2023/07/31 01:34:58;;;;;;;1.73;0.40;;;15.40;99.90;;;;;;5040208;28;20059;-35
2023/07/31 01:37:29;;;;;;;0.70;0.30;;;15.40;99.90;;;;;;5045248;28;20387;-35
2023/07/31 01:39:55;;;;;;;1.20;0.40;;;15.40;99.90;;;;;;5040223;28;20186;-35
2023/07/31 01:42:21;;;;;;;0.77;0.40;;;15.40;99.90;;;;;;5040017;28;20515;-35
2023/07/31 01:44:46;;;;;;;1.52;0.60;;;15.40;99.90;;;;;;5044445;28;20052;-34
2023/07/31 01:47:12;;;;;;;1.90;0.43;;;15.40;99.90;;;;;;5042363;28;20063;-34
2023/07/31 01:49:37;;;;;;;2.08;0.60;;;15.40;99.90;;;;;;5041033;28;20053;-35
2023/07/31 01:52:03;;;;;;;0.88;0.45;;;15.40;99.90;;;;;;5039777;28;20053;-35
2023/07/31 01:54:29;;;;;;;1.10;0.50;;;15.50;99.90;;;;;;5042536;28;20417;-35
2023/07/31 01:56:55;;;;;;;1.33;0.50;;;15.50;99.90;;;;;;5038683;28;20053;-35
2023/07/31 01:59:21;;;;;;;0.80;0.50;;;15.50;99.90;;;;;;5039175;28;20563;-35
2023/07/31 02:01:46;;;;;;;2.70;0.80;;;15.50;99.90;;;;;;5043791;28;20087;-34
2023/07/31 02:04:12;;;;;;;1.63;0.60;;;15.50;99.90;;;;;;5038208;28;20612;-35
2023/07/31 02:06:38;;;;;;;1.95;0.55;;;15.60;99.90;;;;;;5040473;28;20055;-35
2023/07/31 02:09:04;;;;;;;3.20;0.70;;;15.60;99.90;;;;;;5041914;28;20556;-35
2023/07/31 02:11:30;;;;;;;1.30;0.63;;;15.60;99.90;;;;;;5037852;28;20048;-35
2023/07/31 02:13:55;;;;;;;2.30;0.57;;;15.70;99.90;;;;;;5034060;28;20068;-35
2023/07/31 02:16:21;;;;;;;2.00;0.50;;;15.70;99.90;;;;;;5043123;28;20056;-35
2023/07/31 02:18:47;;;;;;;3.30;0.50;;;15.70;99.90;;;;;;5041430;28;20487;-35
2023/07/31 02:21:12;;;;;;;2.28;0.50;;;15.70;99.90;;;;;;5039172;28;20056;-35
2023/07/31 02:23:38;;;;;;;0.88;0.30;;;15.80;99.90;;;;;;5036900;28;20053;-35
2023/07/31 02:26:04;;;;;;;1.23;0.50;;;15.80;99.90;;;;;;5039769;28;20476;-35
2023/07/31 02:28:29;;;;;;;2.80;0.60;;;15.80;99.90;;;;;;5040948;28;20156;-36
2023/07/31 02:30:55;;;;;;;1.40;0.43;;;15.90;99.90;;;;;;5038152;28;20102;-35
2023/07/31 02:33:21;;;;;;;1.77;0.45;;;15.90;99.90;;;;;;5036661;28;20049;-36
2023/07/31 02:35:46;;;;;;;1.27;0.40;;;15.90;99.90;;;;;;5040859;28;20055;-36
2023/07/31 02:38:12;;;;;;;2.38;0.52;;;16.00;99.90;;;;;;5041598;28;20541;-36
2023/07/31 02:40:41;;;;;;;1.23;0.50;;;16.00;99.90;;;;;;5042540;28;20052;-36
2023/07/31 02:43:07;;;;;;;5.75;0.50;;;16.00;99.90;;;;;;5038415;28;20052;-36
2023/07/31 02:45:32;;;;;;;1.75;0.50;;;16.00;99.90;;;;;;5040704;28;20489;-36
2023/07/31 02:47:58;;;;;;;2.17;0.60;;;16.00;99.90;;;;;;5041349;28;20052;-36
2023/07/31 02:50:24;;;;;;;1.27;0.60;;;16.10;99.90;;;;;;5040230;28;20139;-36
2023/07/31 02:52:49;;;;;;;1.92;0.77;;;16.10;99.90;;;;;;5027542;28;20055;-35
2023/07/31 02:55:15;;;;;;;1.85;0.70;;;16.10;99.90;;;;;;5037231;28;20053;-36
2023/07/31 02:57:41;;;;;;;1.85;0.57;;;16.10;99.90;;;;;;5038607;28;20079;-35
2023/07/31 03:00:07;;;;;;;2.50;0.77;;;16.10;99.90;;;;;;5040298;28;20414;-36
2023/07/31 03:02:32;;;;;;;2.22;0.73;;;16.10;99.90;;;;;;5037700;28;20045;-35
2023/07/31 03:04:58;;;;;;;4.75;1.63;;;16.10;99.90;;;;;;5041135;28;20053;-36
2023/07/31 03:07:24;;;;;;;3.10;0.93;;;16.10;99.90;;;;;;5036066;28;20048;-35
2023/07/31 03:09:49;;;;;;;5.15;1.38;;;16.10;99.90;;;;;;5039068;28;20056;-36
2023/07/31 03:12:15;;;;;;;3.85;1.00;;;16.10;99.90;;;;;;5040264;28;20052;-36
2023/07/31 03:14:41;;;;;;;2.72;0.80;;;16.10;99.90;;;;;;5035104;28;20065;-36
2023/07/31 03:17:06;;;;;;;4.18;0.80;;;16.10;99.90;;;;;;5035968;28;20048;-36
2023/07/31 03:19:33;;;;;;;2.75;0.85;;;16.10;99.90;;;;;;5040758;28;20040;-35
2023/07/31 03:21:59;;;;;;;3.13;0.80;;;16.10;99.90;;;;;;5043572;28;20055;-36
2023/07/31 03:24:25;;;;;;;4.57;1.45;;;16.20;99.90;;;;;;5020595;28;20054;-36
2023/07/31 03:26:51;;;;;;;5.88;1.10;;;16.20;99.90;;;;;;5037728;28;20144;-36
2023/07/31 03:29:17;;;;;;;3.97;1.08;;;16.20;99.90;;;;;;5038087;28;20402;-36
2023/07/31 03:31:42;;;;;;;3.85;1.52;;;16.20;99.90;;;;;;5039677;28;20065;-36
2023/07/31 03:34:08;;;;;;;2.72;0.77;;;16.20;99.90;;;;;;5031874;28;20053;-37
2023/07/31 03:36:34;;;;;;;4.63;1.10;;;16.20;99.90;;;;;;5041291;28;20103;-36
2023/07/31 03:38:59;;;;;;;3.65;1.27;;;16.20;99.90;;;;;;5044959;28;20080;-36
2023/07/31 03:41:25;;;;;;;3.55;1.35;;;16.20;99.90;;;;;;5048253;28;20052;-36
2023/07/31 03:43:52;;;;;;;3.95;1.02;;;16.20;99.90;;;;;;5045315;28;20057;-36
2023/07/31 03:46:18;;;;;;;2.92;1.10;;;16.20;99.90;;;;;;5044080;28;20044;-36
2023/07/31 03:48:43;;;;;;;2.70;1.10;;;16.20;99.90;;;;;;5041774;28;20079;-36
2023/07/31 03:51:09;;;;;;;6.45;1.63;;;16.20;99.90;;;;;;5042089;28;20061;-36
2023/07/31 03:53:34;;;;;;;4.93;1.27;;;16.20;99.90;;;;;;5040518;28;20041;-35
2023/07/31 03:56:00;;;;;;;6.80;1.40;;;16.20;99.90;;;;;;5025527;28;20045;-36
2023/07/31 03:58:26;;;;;;;4.55;1.60;;;16.20;99.90;;;;;;5042940;28;20053;-36
2023/07/31 04:00:51;;;;;;;6.05;1.85;;;16.20;99.90;;;;;;5043044;28;20403;-36
2023/07/31 04:03:17;;;;;;;7.90;2.20;;;16.20;99.90;;;;;;5043699;28;20044;-36
2023/07/31 04:05:43;;;;;;;9.85;2.25;;;16.30;99.90;;;;;;5041263;28;20072;-36
2023/07/31 04:08:08;;;;;;;10.13;2.90;;;16.30;99.90;;;;;;5045676;28;20414;-37
2023/07/31 04:10:34;;;;;;;8.05;2.80;;;16.30;99.90;;;;;;5041225;28;20490;-36
2023/07/31 04:13:00;;;;;;;12.02;2.75;;;16.30;99.90;;;;;;5044931;28;20553;-36
2023/07/31 04:15:26;;;;;;;10.98;2.83;;;16.30;99.90;;;;;;5024683;28;20053;-36
2023/07/31 04:17:52;;;;;;;13.75;2.75;;;16.30;99.90;;;;;;5045805;28;20069;-36
2023/07/31 04:20:17;;;;;;;8.40;2.75;;;16.40;99.90;;;;;;5046459;28;20077;-36
2023/07/31 04:22:43;;;;;;;14.45;3.58;;;16.30;99.90;;;;;;5042383;28;20089;-36
2023/07/31 04:25:09;;;;;;;13.50;3.40;;;16.30;99.90;;;;;;5025303;28;20052;-36
2023/07/31 04:27:34;;;;;;;10.75;2.95;;;16.30;99.90;;;;;;5042072;28;20528;-36
2023/07/31 04:30:00;;;;;;;10.30;3.15;;;16.30;99.90;;;;;;5041038;28;20044;-36
2023/07/31 04:32:26;;;;;;;10.52;3.30;;;16.30;99.90;;;;;;5043092;28;20139;-35
2023/07/31 04:34:51;;;;;;;30.27;3.30;;;16.30;99.90;;;;;;5039338;28;20079;-35
2023/07/31 04:37:17;;;;;;;14.00;3.13;;;16.30;99.90;;;;;;5040257;28;20099;-36
2023/07/31 04:39:43;;;;;;;11.95;2.90;;;16.30;99.90;;;;;;5042500;28;20049;-36
2023/07/31 04:42:08;;;;;;;13.77;3.38;;;16.30;99.90;;;;;;5028768;28;20056;-36
2023/07/31 04:44:35;;;;;;;17.60;3.78;;;16.30;99.90;;;;;;5041500;28;20072;-36
2023/07/31 04:47:01;;;;;;;23.83;3.63;;;16.30;99.90;;;;;;5043179;28;20426;-35
2023/07/31 04:49:27;;;;;;;12.75;3.80;;;16.30;99.90;;;;;;5039753;28;20053;-36
2023/07/31 04:51:53;;;;;;;12.98;3.70;;;16.30;99.90;;;;;;5041372;28;20046;-36
2023/07/31 04:54:18;;;;;;;14.15;3.25;;;16.40;99.90;;;;;;5024820;28;20063;-36
2023/07/31 04:56:44;;;;;;;10.63;2.95;;;16.40;99.90;;;;;;5038621;28;20071;-36
2023/07/31 04:59:10;;;;;;;12.18;3.67;;;16.40;99.90;;;;;;5039172;28;20050;-35
2023/07/31 05:01:35;;;;;;;13.10;3.28;;;16.40;99.90;;;;;;5045318;28;20041;-36
2023/07/31 05:04:02;;;;;;;15.55;4.03;;;16.40;99.90;;;;;;5042956;28;20142;-36
2023/07/31 05:06:27;;;;;;;18.35;3.85;;;16.40;99.90;;;;;;5042550;28;20049;-36
2023/07/31 05:08:53;;;;;;;16.13;3.83;;;16.40;99.90;;;;;;5041913;28;20053;-36
2023/07/31 05:11:19;;;;;;;14.25;3.67;;;16.40;99.90;;;;;;5039281;28;20197;-35
2023/07/31 05:13:44;;;;;;;18.30;4.25;;;16.40;99.90;;;;;;5035944;28;20110;-36
2023/07/31 05:16:10;;;;;;;14.70;4.65;;;16.50;99.90;;;;;;5044928;28;20106;-35
2023/07/31 05:18:36;;;;;;;19.05;4.50;;;16.40;99.90;;;;;;5040198;28;20516;-36
2023/07/31 05:21:01;;;;;;;16.40;4.15;;;16.50;99.90;;;;;;5038631;28;20036;-36
2023/07/31 05:23:27;;;;;;;17.50;4.82;;;16.50;99.90;;;;;;5040949;28;20513;-36
2023/07/31 05:25:53;;;;;;;15.75;4.07;;;16.50;99.90;;;;;;5024977;28;20087;-36
2023/07/31 05:28:21;;;;;;;15.05;4.30;;;16.50;99.90;;;;;;5043342;28;20494;-35
2023/07/31 05:30:46;;;;;;;18.88;4.10;;;16.50;99.90;;;;;;5036255;28;20107;-36
2023/07/31 05:33:12;;;;;;;15.43;3.92;;;16.50;99.90;;;;;;5039507;28;20049;-36
2023/07/31 05:35:38;;;;;;;13.90;3.75;;;16.50;99.90;;;;;;5042104;28;20108;-35
2023/07/31 05:38:04;;;;;;;15.23;3.20;;;16.50;99.90;;;;;;5042370;28;20056;-36
2023/07/31 05:40:33;;;;;;;14.73;4.00;;;16.50;99.90;;;;;;5040463;28;20472;-36
2023/07/31 05:42:58;;;;;;;17.70;4.03;;;16.60;99.90;;;;;;5041244;28;20045;-36
2023/07/31 05:45:25;;;;;;;21.83;4.32;;;16.60;99.90;;;;;;5041282;28;20459;-36
2023/07/31 05:47:51;;;;;;;14.65;3.55;;;16.70;99.90;;;;;;5039843;28;20495;-36
2023/07/31 05:50:16;;;;;;;12.15;3.85;;;16.70;99.90;;;;;;5048051;28;20048;-36
2023/07/31 05:52:42;;;;;;;10.15;3.55;;;16.70;99.90;;;;;;5042081;28;20106;-35
2023/07/31 05:55:08;;;;;;;13.95;3.83;;;16.80;99.90;;;;;;5039931;28;20056;-36
2023/07/31 05:57:34;;;;;;;10.88;4.03;;;16.80;99.90;;;;;;5039751;28;20478;-36
2023/07/31 05:59:59;;;;;;;10.48;3.45;;;16.80;99.90;;;;;;5037667;28;20149;-36
2023/07/31 06:02:25;;;;;;;17.73;4.82;;;16.70;99.90;;;;;;5036354;28;20086;-36
2023/07/31 06:04:51;;;;;;;13.88;4.32;;;16.70;99.90;;;;;;5042079;28;20130;-36
2023/07/31 06:07:16;;;;;;;14.15;3.95;;;16.60;99.90;;;;;;5043989;28;20398;-35
2023/07/31 06:09:42;;;;;;;14.30;4.72;;;16.60;99.90;;;;;;5040361;28;20448;-36
2023/07/31 06:12:08;;;;;;;12.63;4.53;;;16.50;99.90;;;;;;5039303;28;20060;-36
2023/07/31 06:14:34;;;;;;;15.80;4.85;;;16.50;99.90;;;;;;5040313;28;20141;-36
2023/07/31 06:17:00;;;;;;;15.73;4.55;;;16.50;99.90;;;;;;5040511;28;20127;-35
2023/07/31 06:19:25;;;;;;;12.25;4.53;;;16.50;99.90;;;;;;5040073;28;20494;-36
2023/07/31 06:21:51;;;;;;;15.90;4.90;;;16.50;99.90;;;;;;5041760;28;20048;-35
2023/07/31 06:24:20;;;;;;;16.73;4.65;;;16.50;99.90;;;;;;5042816;28;20120;-35
2023/07/31 06:26:45;;;;;;;11.55;4.10;;;16.40;99.90;;;;;;5037940;28;20067;-35
2023/07/31 06:29:11;;;;;;;12.30;4.20;;;16.40;99.90;;;;;;5040534;28;20044;-35
2023/07/31 06:31:37;;;;;;;11.88;4.05;;;16.50;99.90;;;;;;5038973;28;20052;-40
2023/07/31 06:34:02;;;;;;;7.25;2.83;;;16.50;99.90;;;;;;5040805;28;20065;-36
2023/07/31 06:36:28;;;;;;;6.88;3.13;;;16.50;99.90;;;;;;5041691;28;20107;-36
2023/07/31 06:38:53;;;;;;;6.57;1.70;;;16.40;99.90;;;;;;5036992;28;20061;-36
2023/07/31 06:41:19;;;;;;;7.18;2.17;;;16.40;99.90;;;;;;5040223;28;20516;-36
2023/07/31 06:43:45;;;;;;;7.68;1.83;;;16.40;99.90;;;;;;5038680;28;20147;-36
2023/07/31 06:46:10;;;;;;;5.97;2.03;;;16.40;99.90;;;;;;5035570;28;20129;-36
2023/07/31 06:48:39;;;;;;;5.40;1.77;;;16.40;99.90;;;;;;5041108;28;20409;-37
2023/07/31 06:51:05;;;;;;;8.77;1.90;;;16.40;99.90;;;;;;5038789;28;20045;-36
2023/07/31 06:53:30;;;;;;;6.93;1.63;;;16.50;99.90;;;;;;5038196;28;20426;-36
2023/07/31 06:55:56;;;;;;;4.32;1.48;;;16.50;99.90;;;;;;5037504;28;20498;-36
2023/07/31 06:58:22;;;;;;;5.40;1.70;;;16.50;99.90;;;;;;5033185;28;20050;-36
2023/07/31 07:00:49;;;;;;;6.60;1.70;;;16.50;99.90;;;;;;5035097;28;20083;-36
2023/07/31 07:03:14;;;;;;;4.03;1.55;;;16.50;99.90;;;;;;5040592;28;20063;-36
2023/07/31 07:05:40;;;;;;;6.45;1.85;;;16.50;99.90;;;;;;5035549;28;20686;-44
2023/07/31 07:08:06;;;;;;;5.00;1.58;;;16.50;99.90;;;;;;5015827;28;20057;-36
2023/07/31 07:10:32;;;;;;;4.22;1.27;;;16.50;99.90;;;;;;5040209;28;20053;-36
2023/07/31 07:12:57;;;;;;;3.45;1.42;;;16.50;99.90;;;;;;5043786;28;20067;-37
2023/07/31 07:15:23;;;;;;;3.42;1.17;;;16.40;99.90;;;;;;5042718;28;20060;-37
2023/07/31 07:17:49;;;;;;;3.78;1.30;;;16.40;99.90;;;;;;5043288;28;20105;-37
2023/07/31 07:20:14;;;;;;;3.78;1.50;;;16.40;99.90;;;;;;5044271;28;20052;-36
2023/07/31 07:22:42;;;;;;;2.65;1.17;;;16.40;99.90;;;;;;5043306;28;20053;-37
2023/07/31 07:25:08;;;;;;;3.72;1.10;;;16.50;99.90;;;;;;5040001;28;20509;-36
2023/07/31 07:27:34;;;;;;;3.28;1.00;;;16.50;99.90;;;;;;5043139;28;20048;-36
2023/07/31 07:30:00;;;;;;;2.63;1.08;;;16.50;99.90;;;;;;5039241;28;20053;-36
2023/07/31 07:32:26;;;;;;;3.92;1.20;;;16.50;99.90;;;;;;5040143;28;20579;-36
2023/07/31 07:34:52;;;;;;;2.22;0.82;;;16.60;99.90;;;;;;5034205;28;20060;-37
2023/07/31 07:37:17;;;;;;;2.60;0.98;;;16.60;99.90;;;;;;5041232;28;20053;-37
2023/07/31 07:39:44;;;;;;;3.35;1.35;;;16.60;99.90;;;;;;5041915;28;20056;-46
2023/07/31 07:42:09;;;;;;;2.65;1.10;;;16.60;99.90;;;;;;5044789;28;20132;-36
2023/07/31 07:44:35;;;;;;;6.13;1.30;;;16.50;99.90;;;;;;5043735;28;20053;-36
2023/07/31 07:47:01;;;;;;;3.55;1.23;;;16.50;99.90;;;;;;5025073;28;20159;-36
2023/07/31 07:49:26;;;;;;;2.80;0.80;;;16.50;99.90;;;;;;5043496;28;20467;-37
2023/07/31 07:51:52;;;;;;;2.58;1.10;;;16.60;99.90;;;;;;5042978;28;20051;-37
2023/07/31 07:54:19;;;;;;;1.85;1.02;;;16.60;99.90;;;;;;5041937;28;20053;-36
2023/07/31 07:56:44;;;;;;;2.63;1.08;;;16.70;99.90;;;;;;5045524;28;20049;-36
2023/07/31 07:59:10;;;;;;;3.67;1.10;;;16.80;99.90;;;;;;5044222;28;20087;-36
2023/07/31 08:01:35;;;;;;;4.15;1.20;;;16.80;99.90;;;;;;5043303;28;20055;-37
2023/07/31 08:04:01;;;;;;;4.30;1.10;;;16.90;99.90;;;;;;5040649;28;20532;-36
2023/07/31 08:06:27;;;;;;;3.20;0.95;;;17.00;99.90;;;;;;5045533;28;20107;-36
2023/07/31 08:08:52;;;;;;;2.17;0.90;;;17.00;99.90;;;;;;5041987;28;20055;-37
2023/07/31 08:11:18;;;;;;;1.77;0.75;;;17.00;99.90;;;;;;5045351;28;20073;-39
2023/07/31 08:13:44;;;;;;;2.58;0.80;;;17.00;99.90;;;;;;5043656;28;20398;-36
2023/07/31 08:16:09;;;;;;;3.17;1.02;;;17.00;99.90;;;;;;5043561;28;20057;-36
2023/07/31 08:18:35;;;;;;;2.97;0.90;;;17.00;99.90;;;;;;5047466;28;20049;-36
2023/07/31 08:21:02;;;;;;;2.05;0.77;;;17.00;99.90;;;;;;5023232;28;20044;-36
2023/07/31 08:23:28;;;;;;;1.98;0.75;;;16.90;99.90;;;;;;5044524;28;20557;-36
2023/07/31 08:25:54;;;;;;;1.92;1.00;;;17.00;99.90;;;;;;5025635;28;20042;-37
2023/07/31 08:28:19;;;;;;;3.05;1.00;;;17.00;99.90;;;;;;5044586;28;20733;-36
2023/07/31 08:30:45;;;;;;;1.50;0.70;;;17.10;99.90;;;;;;5044614;28;20045;-36
2023/07/31 08:33:11;;;;;;;1.63;0.80;;;17.10;99.90;;;;;;5044357;28;20052;-37
2023/07/31 08:35:37;;;;;;;1.90;0.82;;;17.10;99.90;;;;;;5039780;28;20079;-37
2023/07/31 08:38:02;;;;;;;2.88;0.70;;;17.10;99.90;;;;;;5037900;28;20065;-36
2023/07/31 08:40:29;;;;;;;1.60;0.60;;;17.10;99.90;;;;;;5042457;28;20170;-45
2023/07/31 08:43:02;;;;;;;2.28;0.60;;;17.10;99.90;;;;;;5042627;28;20057;-37
2023/07/31 08:45:28;;;;;;;1.38;0.70;;;17.20;99.90;;;;;;5044125;28;20110;-41
2023/07/31 08:47:57;;;;;;;1.98;0.88;;;17.20;99.90;;;;;;5039780;28;20543;-37
2023/07/31 08:50:23;;;;;;;1.90;0.70;;;17.30;99.90;;;;;;5040250;28;20457;-36
2023/07/31 08:52:50;;;;;;;1.90;0.60;;;17.30;99.90;;;;;;5046197;28;20076;-37
2023/07/31 08:55:16;;;;;;;1.52;0.68;;;17.30;99.90;;;;;;5043475;28;20060;-37
2023/07/31 08:57:43;;;;;;;0.98;0.60;;;17.40;99.90;;;;;;5046985;28;20056;-36
2023/07/31 09:00:10;;;;;;;3.05;0.55;;;17.40;99.90;;;;;;5042234;28;20160;-37
2023/07/31 09:03:07;;;;;;;1.27;0.70;;;17.40;99.90;;;;;;5041871;28;20095;-36
2023/07/31 09:05:34;;;;;;;1.13;0.50;;;17.30;99.90;;;;;;5039277;28;20054;-36
2023/07/31 09:08:01;;;;;;;1.50;0.70;;;17.30;99.90;;;;;;5039553;28;20123;-36
2023/07/31 09:10:27;;;;;;;4.15;0.68;;;17.30;99.90;;;;;;5041030;28;20835;-36
2023/07/31 09:12:53;;;;;;;2.10;0.40;;;17.40;99.90;;;;;;5044325;28;20063;-36
2023/07/31 09:15:19;;;;;;;1.52;0.60;;;17.40;99.90;;;;;;5038083;28;20517;-36
2023/07/31 09:17:44;;;;;;;2.97;0.60;;;17.40;99.90;;;;;;5046917;28;20088;-37
2023/07/31 09:20:13;;;;;;;1.42;0.60;;;17.50;99.90;;;;;;5040517;28;20092;-36
2023/07/31 09:22:39;;;;;;;0.82;0.55;;;17.60;99.90;;;;;;5039404;28;20057;-37
2023/07/31 09:25:21;;;;;;;0.98;0.50;;;17.70;99.90;;;;;;5044414;28;20045;-37
2023/07/31 09:28:01;;;;;;;1.50;0.80;;;17.80;99.90;;;;;;5040473;28;20045;-36
2023/07/31 09:30:26;;;;;;;1.80;0.60;;;17.80;99.90;;;;;;5039528;28;20088;-36
2023/07/31 09:33:01;;;;;;;1.27;0.40;;;17.80;99.90;;;;;;5039590;28;20064;-42
2023/07/31 09:35:29;;;;;;;1.17;0.57;;;17.90;99.90;;;;;;5039297;28;20124;-36
2023/07/31 09:38:00;;;;;;;1.08;0.45;;;17.90;99.90;;;;;;5038834;28;20528;-50
2023/07/31 09:40:28;;;;;;;1.30;0.60;;;17.90;99.90;;;;;;5036054;28;20140;-42
2023/07/31 09:43:04;;;;;;;0.85;0.52;;;17.90;99.90;;;;;;5042763;28;20048;-37
2023/07/31 09:45:38;;;;;;;1.98;0.65;;;17.90;99.90;;;;;;5035899;28;20049;-37
2023/07/31 09:48:09;;;;;;;1.15;0.60;;;17.90;99.90;;;;;;5039177;28;20114;-37
2023/07/31 09:50:38;;;;;;;1.23;0.60;;;18.00;99.90;;;;;;5022041;28;20052;-37
2023/07/31 09:53:04;;;;;;;0.70;0.45;;;18.00;99.90;;;;;;5039111;28;20510;-37
2023/07/31 09:55:31;;;;;;;1.33;0.80;;;18.00;99.90;;;;;;5041175;28;20086;-36
2023/07/31 09:57:57;;;;;;;1.75;0.60;;;18.10;99.90;;;;;;5039929;28;20490;-36
2023/07/31 10:00:26;;;;;;;1.48;0.57;;;18.10;99.90;;;;;;5043346;28;20051;-36
2023/07/31 10:02:53;;;;;;;2.97;0.60;;;18.10;99.90;;;;;;5045361;28;20080;-37
2023/07/31 10:05:19;;;;;;;0.88;0.55;;;18.20;99.90;;;;;;5043455;28;20071;-36
2023/07/31 10:07:54;;;;;;;0.70;0.50;;;18.30;99.90;;;;;;5042889;28;20492;-36
2023/07/31 10:10:24;;;;;;;1.30;0.52;;;18.40;99.90;;;;;;5038257;28;20063;-36
2023/07/31 10:12:52;;;;;;;1.02;0.40;;;18.50;99.90;;;;;;5038031;28;20044;-36
2023/07/31 10:15:18;;;;;;;0.85;0.47;;;18.50;99.90;;;;;;5038948;28;20045;-36
2023/07/31 10:17:46;;;;;;;0.30;0.20;;;18.50;99.90;;;;;;5038354;28;20045;-36
2023/07/31 10:20:12;;;;;;;0.60;0.40;;;18.50;99.90;;;;;;5040587;28;20521;-36
2023/07/31 10:22:38;;;;;;;0.88;0.30;;;18.50;99.90;;;;;;5036661;28;20091;-36
2023/07/31 10:25:06;;;;;;;0.77;0.30;;;18.50;99.90;;;;;;5043286;28;20060;-39
2023/07/31 10:27:38;;;;;;;0.93;0.30;;;18.50;99.90;;;;;;5034549;28;20122;-36
2023/07/31 10:30:07;;;;;;;0.30;0.30;;;18.50;99.90;;;;;;5042786;28;20171;-36
2023/07/31 10:32:33;;;;;;;0.38;0.22;;;18.60;99.90;;;;;;5036000;28;20048;-36
2023/07/31 10:35:00;;;;;;;0.88;0.50;;;18.60;99.90;;;;;;5020519;28;20114;-37
2023/07/31 10:37:27;;;;;;;1.05;0.50;;;18.70;99.90;;;;;;5041691;28;20147;-35
2023/07/31 10:40:02;;;;;;;0.88;0.50;;;18.70;99.90;;;;;;5040868;28;20122;-35
2023/07/31 10:42:32;;;;;;;0.63;0.40;;;18.60;99.90;;;;;;5037529;28;20147;-35
2023/07/31 10:45:03;;;;;;;0.85;0.40;;;18.60;99.90;;;;;;5032628;28;20060;-35
2023/07/31 10:47:29;;;;;;;0.98;0.50;;;18.60;99.90;;;;;;5039837;28;20498;-35
2023/07/31 10:50:16;;;;;;;0.80;0.50;;;18.60;99.90;;;;;;5037084;28;20067;-35
2023/07/31 10:52:48;;;;;;;1.35;0.40;;;18.70;99.90;;;;;;5036047;28;20503;-37
2023/07/31 10:55:40;;;;;;;0.50;0.40;;;18.70;99.90;;;;;;5038028;28;20117;-34
2023/07/31 10:58:09;;;;;;;0.73;0.40;;;18.70;99.90;;;;;;5039074;28;20114;-37
2023/07/31 11:00:38;;;;;;;0.60;0.40;;;18.70;99.90;;;;;;5039430;28;20334;-35
2023/07/31 11:03:17;;;;;;;0.40;0.30;;;18.80;99.90;;;;;;5034405;28;20063;-35
2023/07/31 11:05:50;;;;;;;0.73;0.38;;;18.90;99.90;;;;;;5039991;28;20529;-34
2023/07/31 11:08:16;;;;;;;0.75;0.22;;;19.00;99.90;;;;;;5036974;28;20403;-35
2023/07/31 11:10:43;;;;;;;0.35;0.25;;;19.00;99.90;;;;;;5035728;28;20080;-35
2023/07/31 11:13:09;;;;;;;0.35;0.20;;;19.00;99.90;;;;;;5033432;28;20057;-37
2023/07/31 11:15:35;;;;;;;0.50;0.30;;;19.10;99.90;;;;;;5035719;28;20529;-35
2023/07/31 11:18:05;;;;;;;2.10;0.40;;;19.10;99.90;;;;;;5035434;28;20052;-37
2023/07/31 11:20:35;;;;;;;0.68;0.20;;;19.20;99.90;;;;;;5036186;28;20045;-37
2023/07/31 11:23:02;;;;;;;1.45;0.20;;;19.30;99.90;;;;;;5039280;28;20506;-35
2023/07/31 11:25:31;;;;;;;0.60;0.20;;;19.30;99.90;;;;;;5036676;28;20060;-48
2023/07/31 11:28:05;;;;;;;0.60;0.20;;;19.30;99.90;;;;;;5036914;28;20045;-34
2023/07/31 11:30:31;;;;;;;1.45;0.98;;;19.30;99.90;;;;;;5019981;28;20179;-34
2023/07/31 11:32:57;;;;;;;3.78;0.60;;;19.40;99.90;;;;;;5037169;28;20061;-35
2023/07/31 11:35:22;;;;;;;4.35;0.60;;;19.60;99.90;;;;;;5039955;28;20086;-34
2023/07/31 11:37:48;;;;;;;3.13;0.60;;;19.70;99.90;;;;;;5039165;28;20048;-35
2023/07/31 11:40:14;;;;;;;3.15;0.60;;;19.70;99.90;;;;;;5037603;28;21130;-34
2023/07/31 11:42:40;;;;;;;4.85;0.88;;;19.70;99.90;;;;;;5034931;28;20102;-34
2023/07/31 11:45:08;;;;;;;3.70;0.73;;;19.90;99.90;;;;;;5041954;28;20047;-38
2023/07/31 11:47:35;;;;;;;2.15;0.55;;;19.90;99.90;;;;;;5038361;28;20145;-35
2023/07/31 11:50:05;;;;;;;3.47;0.80;;;20.00;99.90;;;;;;5033409;28;20053;-35
2023/07/31 11:52:36;;;;;;;3.33;0.60;;;20.20;99.90;;;;;;5038996;28;20052;-34
2023/07/31 11:55:03;;;;;;;4.63;0.73;;;20.30;99.90;;;;;;5020074;28;20152;-41
2023/07/31 11:57:29;;;;;;;3.75;0.73;;;20.30;99.90;;;;;;5034861;28;20064;-34
2023/07/31 11:59:56;;;;;;;2.75;0.80;;;20.20;99.90;;;;;;5038476;28;20119;-34
2023/07/31 12:02:22;;;;;;;4.45;0.80;;;20.00;99.90;;;;;;5039999;28;20045;-41
2023/07/31 12:04:48;;;;;;;4.00;0.95;;;19.80;99.90;;;;;;5042564;28;20053;-35
2023/07/31 12:07:13;;;;;;;1.77;0.50;;;19.80;99.90;;;;;;5042397;28;20060;-35
2023/07/31 12:09:54;;;;;;;3.13;1.00;;;19.90;99.90;;;;;;5042676;28;20092;-36
2023/07/31 12:12:21;;;;;;;3.78;0.80;;;20.00;99.90;;;;;;5044276;28;20044;-36
2023/07/31 12:14:47;;;;;;;4.95;0.80;;;20.10;99.90;;;;;;5042188;28;20056;-35
2023/07/31 12:17:14;;;;;;;6.82;0.90;;;20.30;99.90;;;;;;5043273;28;20053;-36
2023/07/31 12:19:40;;;;;;;5.18;0.77;;;20.60;99.90;;;;;;5045926;28;20395;-35
2023/07/31 12:22:13;;;;;;;6.28;1.25;;;20.80;99.90;;;;;;5040451;28;20055;-36
2023/07/31 12:24:46;;;;;;;5.13;0.90;;;21.00;99.90;;;;;;5037609;28;20126;-36
2023/07/31 12:27:13;;;;;;;7.85;1.00;;;21.00;99.90;;;;;;5042895;28;20064;-36
2023/07/31 12:29:40;;;;;;;3.83;0.75;;;21.00;99.90;;;;;;5044862;28;20056;-36
2023/07/31 12:32:19;;;;;;;5.18;1.20;;;20.90;99.90;;;;;;5026189;28;20045;-35
2023/07/31 12:34:45;;;;;;;3.97;0.68;;;20.70;99.90;;;;;;5041844;28;20080;-35
2023/07/31 12:37:11;;;;;;;6.57;1.00;;;20.60;99.90;;;;;;5043224;28;20144;-35
2023/07/31 12:39:37;;;;;;;3.72;0.80;;;20.70;99.90;;;;;;5043139;28;20124;-37
2023/07/31 12:42:03;;;;;;;4.18;0.77;;;20.80;99.90;;;;;;5041724;28;20577;-35
2023/07/31 12:44:29;;;;;;;3.53;0.73;;;20.80;99.90;;;;;;5044867;28;20045;-35